Time;durP1;ratioP1;P1;durP2;ratioP2;P2;SDS_P1;SDS_P2;PMS_P1;PMS_P2;Temp;Humidity;BMP_temperature;BMP_pressure;BME280_temperature;BME280_humidity;BME280_pressure;Samples;Min_cycle;Max_cycle;Signal;HPM_P1;HPM_P2
2022/06/03 00:02:49;;;;;;;2.00;1.80;;;;;;;5.50;88.91;100817.25;5038230;28;20057;-60
2022/06/03 00:05:48;;;;;;;2.80;2.00;;;;;;;5.49;85.74;100799.94;5039700;28;20244;-60
2022/06/03 00:08:54;;;;;;;2.90;2.10;;;;;;;5.58;85.02;100811.28;5039336;28;20045;-60
2022/06/03 00:11:49;;;;;;;3.15;2.05;;;;;;;5.70;84.77;100820.09;5024789;28;20271;-60
2022/06/03 00:14:47;;;;;;;2.50;2.00;;;;;;;5.89;83.84;100810.78;5039644;28;20401;-60
2022/06/03 00:17:39;;;;;;;3.55;1.90;;;;;;;6.13;83.72;100807.63;5039372;28;20057;-61
2022/06/03 00:20:20;;;;;;;2.00;1.80;;;;;;;6.14;82.40;100786.00;5041007;28;20381;-60
2022/06/03 00:23:07;;;;;;;2.92;2.05;;;;;;;6.44;82.12;100814.88;5047876;28;20123;-60
2022/06/03 00:25:58;;;;;;;2.88;1.75;;;;;;;6.51;80.74;100812.31;5056697;28;20063;-60
2022/06/03 00:28:50;;;;;;;2.58;1.85;;;;;;;6.52;80.58;100808.88;5058047;28;20071;-60
2022/06/03 00:31:34;;;;;;;2.53;2.05;;;;;;;6.85;81.88;100809.16;5050394;28;20120;-60
2022/06/03 00:34:34;;;;;;;3.83;1.80;;;;;;;6.93;79.32;100816.13;5048818;28;20340;-60
2022/06/03 00:37:22;;;;;;;2.35;1.65;;;;;;;6.67;78.00;100816.81;5040216;28;20044;-60
2022/06/03 00:40:13;;;;;;;5.43;2.10;;;;;;;6.38;78.86;100822.59;5047740;28;20057;-60
2022/06/03 00:43:11;;;;;;;3.88;2.10;;;;;;;6.24;79.50;100819.88;5039108;28;20179;-60
2022/06/03 00:46:03;;;;;;;3.40;2.30;;;;;;;6.10;80.08;100820.59;5043357;28;20356;-60
2022/06/03 00:48:50;;;;;;;2.80;2.05;;;;;;;5.81;81.17;100766.59;5038959;28;20057;-60
2022/06/03 00:51:52;;;;;;;4.47;2.50;;;;;;;6.40;80.63;100820.88;5038598;28;20075;-60
2022/06/03 00:54:56;;;;;;;4.07;2.80;;;;;;;6.26;79.92;100827.66;5024313;28;20079;-60
2022/06/03 00:57:51;;;;;;;3.70;1.90;;;;;;;6.24;80.43;100835.44;5007691;28;20061;-60
2022/06/03 01:00:26;;;;;;;2.53;2.00;;;;;;;6.25;80.67;100825.94;5037818;28;20091;-59
2022/06/03 01:03:16;;;;;;;4.85;2.30;;;;;;;6.34;80.81;100835.50;5038114;28;20061;-60
2022/06/03 01:06:16;;;;;;;4.05;2.42;;;;;;;6.33;80.74;100834.66;5037642;28;20053;-59
2022/06/03 01:09:23;;;;;;;3.42;2.50;;;;;;;6.40;81.71;100828.66;5032618;28;20053;-59
2022/06/03 01:12:20;;;;;;;3.97;2.00;;;;;;;6.50;79.08;100836.56;5000983;28;20049;-60
2022/06/03 01:15:18;;;;;;;2.83;2.03;;;;;;;6.55;80.48;100840.06;5058075;28;20079;-59
2022/06/03 01:18:00;;;;;;;2.92;2.15;;;;;;;6.24;79.54;100798.22;5051656;28;20099;-59
2022/06/03 01:20:37;;;;;;;3.78;2.00;;;;;;;6.31;79.17;100841.53;5046071;28;20061;-60
2022/06/03 01:23:44;;;;;;;2.85;2.22;;;;;;;6.14;79.78;100858.66;5046089;28;20037;-59
2022/06/03 01:26:36;;;;;;;2.78;1.98;;;;;;;6.04;80.53;100853.38;5050139;28;20052;-61
2022/06/03 01:29:39;;;;;;;3.67;2.22;;;;;;;6.07;81.21;100857.75;5048052;28;20044;-60
2022/06/03 01:32:34;;;;;;;2.53;1.67;;;;;;;5.92;79.69;100850.63;5041743;28;20041;-60
2022/06/03 01:35:51;;;;;;;6.85;2.17;;;;;;;5.80;81.69;100858.25;5040325;28;20053;-60
2022/06/03 01:38:36;;;;;;;3.80;2.10;;;;;;;5.79;81.73;100861.66;5047671;28;21039;-60
2022/06/03 01:41:25;;;;;;;3.03;1.90;;;;;;;5.72;82.62;100852.97;5049708;28;20055;-60
2022/06/03 01:44:29;;;;;;;2.75;2.05;;;;;;;5.68;82.72;100852.91;5039279;28;20119;-60
2022/06/03 01:47:26;;;;;;;4.53;2.15;;;;;;;5.77;83.72;100858.22;5043741;28;20107;-59
2022/06/03 01:50:25;;;;;;;3.92;2.30;;;;;;;5.76;84.50;100856.44;5027878;28;20099;-60
2022/06/03 01:53:25;;;;;;;4.78;2.45;;;;;;;5.87;84.87;100862.66;5037341;28;20049;-59
2022/06/03 01:56:24;;;;;;;5.70;2.15;;;;;;;5.94;83.51;100861.91;5037200;28;20075;-59
2022/06/03 01:59:48;;;;;;;4.03;2.13;;;;;;;6.01;84.56;100863.69;5035817;28;20053;-59
2022/06/03 02:02:45;;;;;;;6.75;1.90;;;;;;;6.02;84.66;100865.47;5002674;28;20080;-60
2022/06/03 02:05:52;;;;;;;4.55;1.90;;;;;;;5.95;83.63;100863.66;5019520;28;20072;-59
2022/06/03 02:09:01;;;;;;;4.88;2.90;;;;;;;5.70;84.16;100859.84;5016635;28;20071;-60
2022/06/03 02:11:52;;;;;;;4.82;2.40;;;;;;;5.75;84.92;100859.91;5026108;28;20402;-60
2022/06/03 02:15:07;;;;;;;5.82;2.10;;;;;;;5.82;85.16;100872.97;5037148;28;20087;-60
2022/06/03 02:18:14;;;;;;;3.15;2.17;;;;;;;5.76;84.74;100872.88;5037375;28;20057;-60
2022/06/03 02:21:12;;;;;;;3.78;1.92;;;;;;;5.77;85.06;100868.59;5025317;28;20057;-59
2022/06/03 02:24:14;;;;;;;3.58;2.20;;;;;;;5.72;85.58;100871.09;5037096;28;20045;-60
2022/06/03 02:27:21;;;;;;;4.63;2.40;;;;;;;5.52;85.37;100873.44;5037153;28;20103;-60
2022/06/03 02:30:30;;;;;;;5.47;2.20;;;;;;;5.55;85.51;100883.84;5037114;28;20063;-60
2022/06/03 02:33:41;;;;;;;3.85;2.35;;;;;;;5.56;86.00;100870.00;5034180;28;20375;-60
2022/06/03 02:37:01;;;;;;;5.75;2.67;;;;;;;5.81;86.17;100870.34;5037019;28;20271;-60
2022/06/03 02:40:02;;;;;;;3.75;2.42;;;;;;;5.89;85.88;100879.13;5036731;28;20083;-60
2022/06/03 02:43:05;;;;;;;6.18;2.65;;;;;;;5.87;85.74;100875.63;5036895;28;20065;-60
2022/06/03 02:46:18;;;;;;;6.50;2.28;;;;;;;5.87;84.98;100891.19;5036840;28;20111;-60
2022/06/03 02:49:37;;;;;;;3.78;2.45;;;;;;;5.82;85.10;100883.34;5036704;28;20213;-60
2022/06/03 02:52:50;;;;;;;4.20;2.38;;;;;;;5.83;85.39;100884.22;5034383;28;20104;-60
2022/06/03 02:55:50;;;;;;;8.18;2.78;;;;;;;5.81;85.59;100875.53;5036615;28;20220;-60
2022/06/03 02:58:56;;;;;;;4.78;2.45;;;;;;;5.70;85.60;100852.06;5036738;28;20060;-60
2022/06/03 03:01:57;;;;;;;5.80;2.20;;;;;;;5.79;85.68;100874.63;5024718;28;20172;-60
2022/06/03 03:04:51;;;;;;;5.78;2.40;;;;;;;5.75;85.65;100875.47;5034442;28;20092;-60
2022/06/03 03:07:56;;;;;;;7.25;2.80;;;;;;;5.74;86.85;100881.47;5036737;28;20057;-60
2022/06/03 03:10:57;;;;;;;5.93;2.50;;;;;;;5.73;86.84;100882.34;5033868;28;20359;-60
2022/06/03 03:14:02;;;;;;;4.60;2.08;;;;;;;5.70;85.51;100882.31;5036543;28;20069;-60
2022/06/03 03:17:00;;;;;;;5.47;2.75;;;;;;;5.70;87.35;100867.63;5036582;28;20684;-60
2022/06/03 03:19:54;;;;;;;4.45;2.58;;;;;;;5.89;87.03;100879.13;5040146;28;20264;-60
2022/06/03 03:22:48;;;;;;;4.35;2.47;;;;;;;5.59;86.33;100807.88;5040517;28;20057;-59
2022/06/03 03:25:40;;;;;;;9.13;2.72;;;;;;;6.15;85.83;100870.81;5040335;28;20057;-60
2022/06/03 03:28:43;;;;;;;3.45;2.60;;;;;;;6.12;84.85;100870.78;5040475;28;20053;-60
2022/06/03 03:31:45;;;;;;;4.65;2.47;;;;;;;5.89;85.86;100879.13;5040308;28;20056;-59
2022/06/03 03:34:25;;;;;;;5.72;2.78;;;;;;;5.81;86.65;100875.53;5032860;28;20049;-59
2022/06/03 03:37:39;;;;;;;4.72;2.85;;;;;;;5.61;86.14;100842.44;5040184;28;20549;-60
2022/06/03 03:40:41;;;;;;;5.55;3.00;;;;;;;5.77;86.42;100873.78;5005680;28;20049;-60
2022/06/03 03:43:47;;;;;;;5.53;2.78;;;;;;;5.49;86.07;100885.47;5038774;28;20049;-60
2022/06/03 03:46:47;;;;;;;6.20;3.15;;;;;;;5.46;87.16;100878.50;5039365;28;20439;-59
2022/06/03 03:49:28;;;;;;;;;;;;;;;5.50;86.76;100880.31;5040410;28;20096;-59
2022/06/03 03:52:33;;;;;;;13.52;4.10;;;;;;;5.75;87.10;100870.28;5039782;28;19963;-59
2022/06/03 03:55:32;;;;;;;7.00;3.92;;;;;;;5.92;86.06;100863.59;5039564;28;20085;-59
2022/06/03 03:58:59;;;;;;;5.47;2.88;;;;;;;6.18;85.30;100878.63;5036114;28;20091;-61
2022/06/03 04:02:05;;;;;;;8.52;3.70;;;;;;;6.17;83.66;100877.75;5039749;28;20111;-59
2022/06/03 04:05:04;;;;;;;4.47;2.95;;;;;;;6.15;82.49;100881.19;5039702;28;20135;-59
2022/06/03 04:08:10;;;;;;;6.53;3.33;;;;;;;6.31;84.37;100882.22;5039540;28;20064;-59
2022/06/03 04:11:16;;;;;;;8.98;3.90;;;;;;;6.31;83.14;100888.25;5024542;28;20329;-58
2022/06/03 04:14:12;;;;;;;4.65;3.28;;;;;;;5.54;83.11;100783.59;5039417;28;20057;-60
2022/06/03 04:17:08;;;;;;;7.20;3.50;;;;;;;5.95;84.05;100889.59;5039692;28;20045;-58
2022/06/03 04:20:23;;;;;;;8.05;4.07;;;;;;;5.96;84.71;100896.50;5039473;28;20096;-59
2022/06/03 04:23:22;;;;;;;7.70;3.85;;;;;;;5.90;84.61;100891.22;5039429;28;20049;-59
2022/06/03 04:26:22;;;;;;;6.40;3.20;;;;;;;5.88;83.71;100913.66;5039484;28;20096;-59
2022/06/03 04:29:35;;;;;;;7.15;3.50;;;;;;;5.83;84.37;100897.19;5038660;28;20053;-60
2022/06/03 04:32:52;;;;;;;9.40;4.32;;;;;;;5.87;83.87;100906.75;5038067;28;20277;-60
2022/06/03 04:36:04;;;;;;;7.70;3.92;;;;;;;5.73;83.81;100903.09;5025152;28;20398;-59
2022/06/03 04:39:19;;;;;;;5.28;3.63;;;;;;;5.71;83.88;100904.78;5040092;28;20151;-60
2022/06/03 04:42:33;;;;;;;4.93;3.58;;;;;;;5.74;83.75;100900.53;5045193;28;20060;-60
2022/06/03 04:46:06;;;;;;;5.85;3.83;;;;;;;5.92;84.07;100912.88;5020486;28;20077;-60
2022/06/03 04:49:33;;;;;;;5.38;3.05;;;;;;;5.77;83.27;100858.22;5042982;28;20057;-60
2022/06/03 04:52:35;;;;;;;7.65;4.07;;;;;;;6.00;82.94;100908.66;5044264;28;20053;-60
2022/06/03 04:55:43;;;;;;;7.57;3.75;;;;;;;5.99;83.64;100916.41;5035934;28;20084;-59
2022/06/03 04:58:55;;;;;;;7.68;3.90;;;;;;;5.97;84.00;100913.81;5044055;28;20060;-60
2022/06/03 05:02:01;;;;;;;8.88;4.82;;;;;;;6.09;84.65;100920.00;5044837;28;20054;-60
2022/06/03 05:05:06;;;;;;;6.85;3.97;;;;;;;6.08;83.61;100915.69;5045039;28;20071;-60
2022/06/03 05:08:30;;;;;;;9.82;5.22;;;;;;;5.94;83.47;100918.97;5044935;28;20053;-60
2022/06/03 05:11:46;;;;;;;7.88;3.95;;;;;;;5.95;83.85;100905.16;4973602;28;20373;-59
2022/06/03 05:15:00;;;;;;;9.98;4.65;;;;;;;5.90;84.98;100914.56;4973713;28;20141;-59
2022/06/03 05:17:48;;;;;;;7.90;4.28;;;;;;;5.86;83.41;100923.16;5044679;28;20100;-59
2022/06/03 05:20:47;;;;;;;14.05;4.97;;;;;;;5.73;83.73;100918.66;5044361;28;20044;-59
2022/06/03 05:23:43;;;;;;;8.02;5.45;;;;;;;5.68;84.66;100916.00;5040279;28;20053;-59
2022/06/03 05:26:44;;;;;;;9.75;5.45;;;;;;;5.75;84.75;100904.84;5044609;28;20045;-59
2022/06/03 05:29:35;;;;;;;9.57;5.40;;;;;;;5.78;85.06;100923.03;5044751;28;20056;-59
2022/06/03 05:32:42;;;;;;;9.85;5.03;;;;;;;5.75;84.56;100922.13;5043531;28;20057;-59
2022/06/03 05:35:39;;;;;;;13.18;5.82;;;;;;;5.34;84.65;100884.41;5044238;28;20285;-59
2022/06/03 05:38:56;;;;;;;10.73;5.90;;;;;;;5.51;85.67;100923.50;5042744;28;20914;-60
2022/06/03 05:44:50;;;;;;;8.27;4.57;;;;;;;5.48;85.28;100918.28;5043573;28;20998;-59
2022/06/03 05:47:25;;;;;;;10.35;4.40;;;;;;;5.67;85.20;100908.22;5044072;28;20060;-59
2022/06/03 05:50:01;;;;;;;7.38;4.35;;;;;;;5.74;85.51;100915.19;5043402;28;20075;-59
2022/06/03 05:52:50;;;;;;;7.53;5.03;;;;;;;5.87;84.02;100891.19;5042898;28;20259;-60
2022/06/03 05:55:42;;;;;;;6.35;4.30;;;;;;;6.01;83.42;100910.41;5042653;28;20049;-59
2022/06/03 05:58:29;;;;;;;6.75;4.22;;;;;;;6.11;83.12;100905.34;5043113;28;20077;-60
2022/06/03 06:01:32;;;;;;;6.85;3.78;;;;;;;5.90;82.81;100898.13;5043318;28;20179;-59
2022/06/03 06:04:12;;;;;;;7.35;4.32;;;;;;;5.41;83.55;100838.69;5033264;28;20124;-60
2022/06/03 06:07:01;;;;;;;13.32;6.20;;;;;;;5.86;84.18;100917.97;5042087;28;20053;-60
2022/06/03 06:09:45;;;;;;;8.80;4.80;;;;;;;5.87;82.86;100903.28;5043647;28;20159;-60
2022/06/03 06:12:38;;;;;;;8.18;4.90;;;;;;;6.00;83.28;100919.06;5043057;28;20057;-60
2022/06/03 06:15:29;;;;;;;10.18;4.45;;;;;;;6.28;82.29;100909.00;5043378;28;20688;-59
2022/06/03 06:18:12;;;;;;;10.02;5.43;;;;;;;6.01;82.08;100905.22;5043348;28;20061;-60
2022/06/03 06:20:58;;;;;;;8.52;5.28;;;;;;;5.85;83.72;100908.44;5043229;28;20063;-60
2022/06/03 06:23:46;;;;;;;10.40;5.25;;;;;;;5.87;83.63;100917.13;5042511;28;20331;-60
2022/06/03 06:26:48;;;;;;;5.30;3.47;;;;;;;5.70;82.97;100918.63;5043043;28;20053;-60
2022/06/03 06:30:04;;;;;;;10.07;4.82;;;;;;;5.67;83.51;100903.88;5026020;28;20055;-60
2022/06/03 06:33:10;;;;;;;8.10;4.25;;;;;;;5.24;84.42;100920.50;5035763;28;20068;-60
2022/06/03 06:36:08;;;;;;;8.20;4.60;;;;;;;5.16;85.85;100921.25;5042714;28;20046;-61
2022/06/03 06:38:48;;;;;;;7.18;4.57;;;;;;;4.96;86.14;100927.81;5043268;28;20612;-60
2022/06/03 06:41:32;;;;;;;7.32;4.68;;;;;;;4.95;86.46;100928.69;5041358;28;20053;-60
2022/06/03 06:44:09;;;;;;;10.90;5.63;;;;;;;4.87;86.86;100923.38;5040999;28;20082;-60
2022/06/03 06:46:57;;;;;;;5.80;4.28;;;;;;;4.75;86.78;100933.50;5043097;28;20061;-60
2022/06/03 06:49:30;;;;;;;9.88;5.20;;;;;;;4.65;86.74;100940.22;5042387;28;20052;-59
2022/06/03 06:52:17;;;;;;;14.00;5.63;;;;;;;4.60;87.53;100928.91;5043233;28;20324;-59
2022/06/03 06:54:59;;;;;;;8.15;5.53;;;;;;;4.45;88.05;100939.84;5046512;28;20046;-59
2022/06/03 06:57:34;;;;;;;9.68;5.10;;;;;;;4.45;87.63;100939.00;5045608;28;20071;-59
2022/06/03 07:00:16;;;;;;;9.68;4.40;;;;;;;4.35;87.59;100942.25;5047048;28;20099;-59
2022/06/03 07:02:53;;;;;;;9.82;5.30;;;;;;;4.27;88.45;100924.84;5046596;28;20207;-60
2022/06/03 07:05:31;;;;;;;10.00;5.38;;;;;;;4.35;88.13;100939.66;5047021;28;20233;-59
2022/06/03 07:08:08;;;;;;;10.18;4.60;;;;;;;4.28;88.90;100941.22;5047205;28;20054;-59
2022/06/03 07:10:46;;;;;;;13.85;5.43;;;;;;;4.19;88.76;100941.91;5046648;28;20275;-59
2022/06/03 07:13:20;;;;;;;8.35;5.28;;;;;;;4.17;89.14;100933.28;5046341;28;20047;-59
2022/06/03 07:16:09;;;;;;;7.13;3.92;;;;;;;4.14;89.45;100940.94;5046144;28;20045;-59
2022/06/03 07:22:02;;;;;;;8.25;5.25;;;;;;;4.11;89.14;100943.47;5046606;28;20380;-59
2022/06/03 07:24:41;;;;;;;10.45;5.07;;;;;;;4.09;89.22;100940.88;5046456;28;20052;-60
2022/06/03 07:27:17;;;;;;;9.02;5.65;;;;;;;4.02;89.41;100943.25;5046707;28;20083;-58
2022/06/03 07:29:52;;;;;;;13.30;5.13;;;;;;;3.97;89.71;100939.72;5046525;28;20045;-59
2022/06/03 07:32:28;;;;;;;8.57;5.30;;;;;;;3.93;89.99;100956.03;5046591;28;20311;-60
2022/06/03 07:35:06;;;;;;;9.57;5.25;;;;;;;3.93;90.19;100953.44;5045156;28;20114;-59
2022/06/03 07:37:45;;;;;;;7.70;4.70;;;;;;;4.02;90.06;100953.63;5044545;28;20152;-60
2022/06/03 07:40:23;;;;;;;13.15;5.78;;;;;;;3.97;90.13;100950.06;5044492;28;20129;-60
2022/06/03 07:43:04;;;;;;;10.05;5.05;;;;;;;4.01;89.44;100941.53;5045173;28;20419;-59
2022/06/03 07:45:54;;;;;;;9.15;4.82;;;;;;;4.01;89.96;100947.56;5044566;28;20111;-59
2022/06/03 07:48:28;;;;;;;10.60;5.55;;;;;;;3.98;89.79;100962.16;5045301;28;20366;-59
2022/06/03 07:51:07;;;;;;;7.45;4.28;;;;;;;3.88;89.18;100938.69;5044625;28;20061;-59
2022/06/03 07:53:50;;;;;;;9.30;4.75;;;;;;;3.84;89.54;100936.91;5045512;28;20069;-59
2022/06/03 07:56:25;;;;;;;8.60;5.40;;;;;;;3.91;89.89;100939.59;5044078;28;20383;-59
2022/06/03 07:58:58;;;;;;;8.52;5.15;;;;;;;3.93;89.88;100943.09;5045626;28;20076;-59
2022/06/03 08:01:31;;;;;;;9.98;5.40;;;;;;;3.87;90.31;100939.53;5045908;28;20255;-59
2022/06/03 08:04:02;;;;;;;11.45;5.65;;;;;;;3.86;90.19;100942.94;5043105;28;20061;-60
2022/06/03 08:12:30;;;;;;;9.23;4.88;;;;;;;3.79;90.29;100935.88;5026780;28;20053;-60
2022/06/03 08:15:00;;;;;;;8.38;4.97;;;;;;;3.80;90.09;100942.81;5045236;28;20112;-59
2022/06/03 08:17:31;;;;;;;8.38;5.07;;;;;;;3.71;90.26;100939.16;5045288;28;20116;-59
2022/06/03 08:20:02;;;;;;;8.23;3.42;;;;;;;3.69;90.79;100928.78;5044558;28;20272;-59
2022/06/03 08:22:35;;;;;;;9.50;4.70;;;;;;;3.68;91.04;100927.03;5045393;28;20057;-60
2022/06/03 08:25:10;;;;;;;8.00;5.10;;;;;;;3.68;90.67;100930.50;5045370;28;20056;-59
2022/06/03 08:27:40;;;;;;;8.25;4.70;;;;;;;3.62;91.12;100927.78;5045728;28;20057;-60
2022/06/03 08:30:15;;;;;;;10.68;5.10;;;;;;;3.59;91.62;100934.56;5043410;28;20057;-59
2022/06/03 08:32:50;;;;;;;12.50;4.60;;;;;;;3.53;91.74;100937.03;5045483;28;20056;-60
2022/06/03 08:35:23;;;;;;;17.33;4.90;;;;;;;3.45;91.68;100923.94;5045487;28;20057;-60
2022/06/03 08:37:58;;;;;;;6.72;4.35;;;;;;;3.56;91.55;100930.22;5045082;28;20050;-59
2022/06/03 08:40:36;;;;;;;10.02;4.88;;;;;;;3.28;91.23;100895.13;5044191;28;20045;-58
2022/06/03 08:43:15;;;;;;;8.07;4.38;;;;;;;3.52;91.78;100940.44;5045142;28;20039;-59
2022/06/03 08:45:56;;;;;;;7.60;4.80;;;;;;;3.46;91.97;100943.75;5045054;28;20059;-58
2022/06/03 08:48:32;;;;;;;8.02;4.30;;;;;;;3.41;91.66;100933.31;5042201;28;20969;-59
2022/06/03 08:51:06;;;;;;;10.88;4.40;;;;;;;3.41;92.05;100933.31;5044082;28;20067;-60
2022/06/03 08:53:46;;;;;;;10.77;5.07;;;;;;;3.49;91.91;100940.38;5044567;28;20045;-59
2022/06/03 08:56:21;;;;;;;11.95;4.88;;;;;;;3.44;91.92;100946.34;5045001;28;20067;-60
2022/06/03 08:58:58;;;;;;;10.73;5.00;;;;;;;3.07;92.00;100884.28;5043501;28;20055;-60
2022/06/03 09:01:36;;;;;;;6.18;4.22;;;;;;;3.42;92.29;100934.19;5045090;28;20128;-60
2022/06/03 09:04:17;;;;;;;7.75;4.40;;;;;;;3.41;92.44;100959.16;5044465;28;20088;-60
2022/06/03 09:06:59;;;;;;;8.00;4.80;;;;;;;3.37;92.04;100962.50;5043289;28;20053;-59
2022/06/03 09:09:37;;;;;;;10.82;5.15;;;;;;;3.37;92.72;100965.09;5043726;28;20053;-59
2022/06/03 09:12:14;;;;;;;9.63;4.93;;;;;;;3.37;93.12;100978.03;5044380;28;20045;-59
2022/06/03 09:14:45;;;;;;;11.55;4.97;;;;;;;3.32;92.92;100979.63;5044469;28;20053;-59
2022/06/03 09:17:48;;;;;;;6.05;4.32;;;;;;;3.35;92.89;100969.34;5044904;28;20076;-60
2022/06/03 09:20:22;;;;;;;8.07;4.70;;;;;;;3.39;93.25;100985.78;5022061;28;20061;-59
2022/06/03 09:23:00;;;;;;;8.52;4.90;;;;;;;3.40;93.11;100978.09;5041237;28;20127;-60
2022/06/03 09:25:35;;;;;;;11.27;5.07;;;;;;;3.38;92.79;100974.59;5042985;28;20564;-60
2022/06/03 09:28:10;;;;;;;8.32;4.50;;;;;;;3.35;93.19;100979.69;5044350;28;20065;-60
2022/06/03 09:30:42;;;;;;;6.30;3.33;;;;;;;3.07;93.13;100946.25;5044069;28;20423;-59
2022/06/03 09:33:15;;;;;;;5.53;3.53;;;;;;;3.27;93.21;100975.16;5041723;28;20067;-60
2022/06/03 09:35:48;;;;;;;8.48;4.78;;;;;;;3.28;93.64;100988.13;5044023;28;20056;-60
2022/06/03 09:38:23;;;;;;;9.15;4.60;;;;;;;3.13;93.84;100972.25;5043810;28;20053;-58
2022/06/03 09:40:59;;;;;;;12.07;5.45;;;;;;;3.01;93.60;100942.69;5043859;28;20079;-59
2022/06/03 09:43:33;;;;;;;11.15;5.13;;;;;;;3.26;93.85;100984.63;5041972;28;20111;-59
2022/06/03 09:46:05;;;;;;;9.90;5.18;;;;;;;3.22;93.74;100987.94;5042002;28;21424;-59
2022/06/03 09:48:39;;;;;;;8.93;4.70;;;;;;;3.30;93.94;100990.75;5042729;28;20116;-59
2022/06/03 09:51:13;;;;;;;7.55;3.88;;;;;;;3.21;93.60;100981.03;5042981;28;20150;-60
2022/06/03 09:53:45;;;;;;;7.55;3.95;;;;;;;3.17;94.19;100989.53;5043403;28;20091;-60
2022/06/03 09:56:23;;;;;;;7.35;4.65;;;;;;;3.21;94.02;101004.28;5042546;28;20049;-60
2022/06/03 09:58:59;;;;;;;11.68;4.72;;;;;;;3.21;94.27;101001.69;5043898;28;20447;-60
2022/06/03 10:01:30;;;;;;;12.30;5.65;;;;;;;3.20;94.12;100989.63;5043571;28;20057;-60
2022/06/03 10:04:03;;;;;;;10.38;4.75;;;;;;;3.19;94.06;101008.53;5040629;28;20053;-60
2022/06/03 10:06:47;;;;;;;8.93;4.60;;;;;;;3.16;94.29;101003.28;5041745;28;20052;-60
2022/06/03 10:18:07;;;;;;;11.05;5.28;;;;;;;3.04;95.05;101009.00;5000944;28;20359;-60
2022/06/03 10:20:38;;;;;;;8.82;4.30;;;;;;;3.00;95.09;100992.56;5000804;28;20084;-59
2022/06/03 10:23:09;;;;;;;7.03;4.00;;;;;;;3.00;95.39;101002.03;5022033;28;20053;-59
2022/06/03 10:25:43;;;;;;;12.25;4.97;;;;;;;3.01;95.18;101004.63;5043316;28;20568;-59
2022/06/03 10:28:16;;;;;;;9.55;4.32;;;;;;;2.79;95.64;100976.50;5043161;28;20127;-59
2022/06/03 10:30:59;;;;;;;9.80;4.10;;;;;;;3.00;95.40;101013.22;5041985;28;20075;-59
2022/06/03 10:33:30;;;;;;;10.27;4.40;;;;;;;3.00;95.30;101012.38;5043102;28;20115;-59
2022/06/03 10:36:02;;;;;;;6.55;4.13;;;;;;;2.98;95.20;101020.06;5042667;28;20084;-59
2022/06/03 10:38:36;;;;;;;5.60;3.67;;;;;;;3.00;95.14;101026.13;5042584;28;20053;-59
2022/06/03 10:41:09;;;;;;;6.18;3.33;;;;;;;2.90;95.51;101026.72;5042403;28;20045;-60
2022/06/03 10:43:43;;;;;;;7.45;4.28;;;;;;;2.98;95.22;101027.81;5043007;28;20347;-60
2022/06/03 10:46:15;;;;;;;6.07;4.07;;;;;;;2.97;95.51;101022.59;5043153;28;20104;-60
2022/06/03 10:48:48;;;;;;;6.50;4.05;;;;;;;2.96;95.22;101032.03;5043574;28;20085;-58
2022/06/03 11:01:06;;;;;;;10.05;4.70;;;;;;;2.95;95.04;101030.31;5042298;28;20079;-59
2022/06/03 11:02:41;;;;;;;4.20;2.72;;;;;;;3.01;94.89;101020.13;5042989;28;20050;-60
2022/06/03 11:05:15;;;;;;;7.15;4.35;;;;;;;2.99;95.18;101023.50;5042918;28;20057;-59
2022/06/03 11:07:59;;;;;;;6.95;4.57;;;;;;;2.71;95.24;100967.69;5043159;28;20053;-59
2022/06/03 11:10:41;;;;;;;7.15;4.50;;;;;;;3.03;95.19;101013.31;5042815;28;20061;-60
2022/06/03 11:13:25;;;;;;;8.88;4.55;;;;;;;3.02;94.78;101006.41;5042235;28;20444;-59
2022/06/03 11:16:12;;;;;;;8.57;4.55;;;;;;;3.01;94.83;101004.63;5043092;28;20285;-59
2022/06/03 11:18:43;;;;;;;8.63;4.57;;;;;;;2.98;95.07;101012.31;5043124;28;20050;-60
2022/06/03 11:21:24;;;;;;;7.55;4.75;;;;;;;2.83;95.26;100983.50;5042458;28;20045;-60
2022/06/03 11:23:57;;;;;;;10.95;5.63;;;;;;;2.87;95.42;101006.00;5042836;28;20105;-60
2022/06/03 11:26:32;;;;;;;12.25;5.53;;;;;;;2.88;96.08;101018.06;5042787;28;20052;-60
2022/06/03 11:29:06;;;;;;;14.32;5.32;;;;;;;2.64;96.17;100981.28;5042464;28;20061;-60
2022/06/03 11:31:43;;;;;;;10.82;5.55;;;;;;;2.91;96.23;101022.44;5042560;28;20059;-60
2022/06/03 11:34:21;;;;;;;9.85;6.20;;;;;;;2.89;96.21;101019.81;5041862;28;20053;-59
2022/06/03 11:36:57;;;;;;;10.35;5.25;;;;;;;2.90;95.98;101026.72;5042070;28;20124;-60
2022/06/03 11:39:35;;;;;;;11.32;5.38;;;;;;;2.90;96.21;101024.16;5044297;28;20120;-60
2022/06/03 11:42:10;;;;;;;13.25;6.40;;;;;;;2.87;96.50;101021.50;5046587;28;20076;-60
2022/06/03 11:44:49;;;;;;;7.63;4.72;;;;;;;2.82;96.27;101012.72;5045650;28;20343;-60
2022/06/03 11:47:25;;;;;;;8.55;4.95;;;;;;;2.30;96.65;100915.88;5045789;28;20071;-60
2022/06/03 11:49:56;;;;;;;10.60;4.88;;;;;;;2.85;96.45;101012.84;5045059;28;20061;-60
2022/06/03 11:52:27;;;;;;;10.30;5.70;;;;;;;2.92;96.19;101027.66;5044987;28;20453;-60
2022/06/03 11:54:57;;;;;;;7.85;4.90;;;;;;;2.91;96.39;101025.88;5046418;28;20056;-60
2022/06/03 11:57:28;;;;;;;10.18;5.93;;;;;;;2.92;96.29;101029.34;5044222;28;20065;-59
2022/06/03 12:00:04;;;;;;;10.95;5.57;;;;;;;2.92;96.16;101022.50;5044902;28;20053;-60
2022/06/03 12:02:43;;;;;;;11.25;4.85;;;;;;;2.92;95.96;101019.00;5044153;28;20116;-59
2022/06/03 12:05:18;;;;;;;11.67;6.20;;;;;;;2.30;96.34;100923.59;5045684;28;20422;-60
2022/06/03 12:07:56;;;;;;;13.23;6.40;;;;;;;2.86;96.36;101011.97;5044387;28;20295;-59
2022/06/03 12:10:37;;;;;;;11.43;5.63;;;;;;;2.70;96.16;100984.03;5045100;28;20041;-59
2022/06/03 12:13:17;;;;;;;13.48;5.85;;;;;;;2.89;96.56;101014.63;5045676;28;20061;-60
2022/06/03 12:16:01;;;;;;;9.93;5.60;;;;;;;2.29;96.36;100906.38;5044275;28;20104;-61
2022/06/03 12:19:01;;;;;;;8.90;5.47;;;;;;;2.71;96.57;100993.50;5044405;28;20346;-59
2022/06/03 12:21:58;;;;;;;12.90;6.95;;;;;;;2.83;96.77;101019.66;4997750;28;20459;-60
2022/06/03 12:24:45;;;;;;;14.13;6.15;;;;;;;2.84;97.00;101026.56;5025790;28;20104;-60
2022/06/03 12:27:25;;;;;;;11.25;6.53;;;;;;;2.81;96.59;101027.34;5025436;28;20053;-59
2022/06/03 12:30:19;;;;;;;11.45;6.22;;;;;;;2.75;96.76;101013.41;5024600;28;20053;-60
2022/06/03 12:32:55;;;;;;;12.82;6.00;;;;;;;2.82;96.71;101028.22;5024910;28;20061;-59
2022/06/03 12:36:03;;;;;;;12.50;6.32;;;;;;;2.84;96.73;101026.56;5024533;28;20265;-60
2022/06/03 12:39:13;;;;;;;11.82;6.72;;;;;;;2.84;96.77;101030.84;5024201;28;20068;-60
2022/06/03 12:42:03;;;;;;;11.95;6.43;;;;;;;2.84;96.67;101026.56;5025193;28;20049;-60
2022/06/03 12:45:13;;;;;;;8.90;5.65;;;;;;;2.79;96.53;101017.81;5025439;28;20340;-60
2022/06/03 12:47:49;;;;;;;10.52;6.53;;;;;;;2.87;96.16;101029.25;5014957;28;20061;-60
2022/06/03 12:51:20;;;;;;;12.50;5.55;;;;;;;2.73;96.05;101012.50;5024069;28;20177;-59
2022/06/03 12:53:53;;;;;;;10.40;4.75;;;;;;;2.87;95.85;101031.81;5025100;28;20057;-59
2022/06/03 12:56:43;;;;;;;10.00;5.95;;;;;;;2.88;96.02;101028.38;5024931;28;20057;-60
2022/06/03 12:59:29;;;;;;;12.40;6.00;;;;;;;2.85;95.66;101033.47;5024541;28;20120;-58
2022/06/03 13:02:06;;;;;;;12.43;6.90;;;;;;;2.87;95.94;101034.41;5024806;28;20566;-59
2022/06/03 13:04:46;;;;;;;13.50;7.22;;;;;;;2.79;95.94;101017.81;5024932;28;20255;-59
2022/06/03 13:07:33;;;;;;;13.38;7.15;;;;;;;2.87;96.24;101031.81;5024873;28;20053;-59
2022/06/03 13:10:26;;;;;;;13.77;7.32;;;;;;;2.87;96.16;101042.16;5024672;28;20042;-60
2022/06/03 13:13:17;;;;;;;20.35;7.18;;;;;;;2.90;95.99;101037.06;5024293;28;20052;-60
2022/06/03 13:15:51;;;;;;;15.98;7.68;;;;;;;2.88;96.10;101033.56;5024312;28;20053;-59
2022/06/03 13:18:41;;;;;;;15.00;7.20;;;;;;;2.91;95.74;101033.63;5023942;28;20075;-60
2022/06/03 13:21:19;;;;;;;16.90;7.13;;;;;;;2.92;95.78;101048.31;5024626;28;20251;-60
2022/06/03 13:24:16;;;;;;;11.50;5.18;;;;;;;2.79;95.53;101017.81;5020945;28;20061;-60
2022/06/03 13:26:50;;;;;;;15.32;6.07;;;;;;;2.73;95.60;101007.34;5017727;28;20349;-60
2022/06/03 13:30:12;;;;;;;16.40;7.15;;;;;;;2.93;95.40;101041.44;5017651;28;20124;-59
2022/06/03 13:32:54;;;;;;;19.77;7.57;;;;;;;2.96;95.74;101047.53;5017482;28;20088;-59
2022/06/03 13:35:27;;;;;;;16.83;6.68;;;;;;;2.99;95.49;101046.75;5017514;28;20061;-59
2022/06/03 13:38:27;;;;;;;17.25;6.88;;;;;;;2.99;95.65;101045.03;5017601;28;20379;-60
2022/06/03 13:44:09;;;;;;;14.38;6.45;;;;;;;2.93;95.75;101031.97;5017295;28;20089;-59
2022/06/03 13:46:41;;;;;;;19.55;7.30;;;;;;;2.96;95.68;101042.38;5017286;28;20068;-59